Addison, New York
Current Conditions -  °F | °C
As of 11:53 PM on Wednesday 22 Oct 2014 (Local Time) from KELM Reporting Station
Overcast Overcast  
Wind Chill: 41°   Ceiling: 1700
Heat Index: 48°   Visibility: 10mi
Dew Point: 42°   Wind: 18mph
Humidity: 80%   Direction: 360°N
Pressure: 30.04"   Gusts: 26mph
Location:  42.1°N, 77.23°W
Report Text: KELM 230353Z 36016G23KT 10SM OVC017 09/06 A3004 RMK AO2 PK WND 01026/0312 SLP177 T00890056
Loading
Personal Weather Stations






























Interactive Weather Map New forecast layout! Learn more

10-Day Weather Forecast

Advertisements
Track Severe Weather on mobile